Time;durP1;ratioP1;P1;durP2;ratioP2;P2;SDS_P1;SDS_P2;PMS_P1;PMS_P2;Temp;Humidity;BMP_temperature;BMP_pressure;BME280_temperature;BME280_humidity;BME280_pressure;Samples;Min_cycle;Max_cycle;Signal;HPM_P1;HPM_P2
2023/11/25 00:00:39;;;;;;;14.95;2.05;;;;;;;;;;5094356;28;20012;-29
2023/11/25 00:03:04;;;;;;;11.65;1.63;;;;;;;;;;5094669;28;20410;-29
2023/11/25 00:05:29;;;;;;;18.97;2.00;;;;;;;;;;5094880;28;20044;-29
2023/11/25 00:07:55;;;;;;;21.48;2.35;;;;;;;;;;5094526;28;20254;-30
2023/11/25 00:10:20;;;;;;;13.80;1.85;;;;;;;;;;5094535;28;20111;-29
2023/11/25 00:12:47;;;;;;;13.93;2.53;;;;;;;;;;5094270;28;20030;-29
2023/11/25 00:15:12;;;;;;;16.02;2.13;;;;;;;;;;5094185;28;20031;-29
2023/11/25 00:17:37;;;;;;;10.60;1.63;;;;;;;;;;5094116;28;20020;-30
2023/11/25 00:20:05;;;;;;;10.20;1.58;;;;;;;;;;5094312;28;20309;-29
2023/11/25 00:22:30;;;;;;;13.63;1.88;;;;;;;;;;5094139;28;20427;-29
2023/11/25 00:24:55;;;;;;;8.98;2.10;;;;;;;;;;5094063;28;20046;-29
2023/11/25 00:27:20;;;;;;;20.73;2.53;;;;;;;;;;5094146;28;20072;-29
2023/11/25 00:29:45;;;;;;;12.33;1.90;;;;;;;;;;5093912;28;20024;-29
2023/11/25 00:32:11;;;;;;;14.97;2.70;;;;;;;;;;5093885;28;20289;-29
2023/11/25 00:34:36;;;;;;;12.13;2.35;;;;;;;;;;5094144;28;20249;-29
2023/11/25 00:37:02;;;;;;;11.30;1.95;;;;;;;;;;5093995;28;20027;-29
2023/11/25 00:39:27;;;;;;;8.70;1.60;;;;;;;;;;5094239;28;20020;-29
2023/11/25 00:41:53;;;;;;;15.03;1.70;;;;;;;;;;5094028;28;20052;-29
2023/11/25 00:44:18;;;;;;;13.20;1.50;;;;;;;;;;5093499;28;20274;-29
2023/11/25 00:46:43;;;;;;;13.80;1.73;;;;;;;;;;5093685;28;20012;-29
2023/11/25 00:49:10;;;;;;;8.38;1.30;;;;;;;;;;5093608;28;20262;-29
2023/11/25 00:51:35;;;;;;;13.02;1.73;;;;;;;;;;5093915;28;20095;-29
2023/11/25 00:54:01;;;;;;;7.23;1.47;;;;;;;;;;5093574;28;20439;-29
2023/11/25 00:56:27;;;;;;;12.67;1.50;;;;;;;;;;5093440;28;20294;-29
2023/11/25 00:58:52;;;;;;;8.35;1.67;;;;;;;;;;5093781;28;20307;-29
2023/11/25 01:01:17;;;;;;;8.55;1.42;;;;;;;;;;5093685;28;20432;-29
2023/11/25 01:03:43;;;;;;;11.90;1.50;;;;;;;;;;5075364;28;20155;-29
2023/11/25 01:06:08;;;;;;;9.33;1.70;;;;;;;;;;5094033;28;20242;-29
2023/11/25 01:08:33;;;;;;;7.80;1.52;;;;;;;;;;5093711;28;20331;-29
2023/11/25 01:10:59;;;;;;;8.88;1.70;;;;;;;;;;5093504;28;20478;-30
2023/11/25 01:13:24;;;;;;;13.85;1.88;;;;;;;;;;5093370;28;20459;-29
2023/11/25 01:15:51;;;;;;;16.25;2.08;;;;;;;;;;5093420;28;20028;-29
2023/11/25 01:18:16;;;;;;;18.75;2.78;;;;;;;;;;5093879;28;20362;-29
2023/11/25 01:20:41;;;;;;;11.82;1.85;;;;;;;;;;5093221;28;20020;-29
2023/11/25 01:23:07;;;;;;;18.17;2.27;;;;;;;;;;5093223;28;20078;-29
2023/11/25 01:25:32;;;;;;;17.40;2.17;;;;;;;;;;5093536;28;20752;-29
2023/11/25 01:27:58;;;;;;;11.40;1.90;;;;;;;;;;5093541;28;20024;-29
2023/11/25 01:30:24;;;;;;;16.95;2.30;;;;;;;;;;5093447;28;20024;-29
2023/11/25 01:32:49;;;;;;;17.83;2.45;;;;;;;;;;5093976;28;20016;-29
2023/11/25 01:35:14;;;;;;;18.38;2.75;;;;;;;;;;5093159;28;20020;-29
2023/11/25 01:37:39;;;;;;;13.40;2.00;;;;;;;;;;5093131;28;20073;-29
2023/11/25 01:40:07;;;;;;;11.85;1.92;;;;;;;;;;5093208;28;20278;-29
2023/11/25 01:42:32;;;;;;;16.02;2.70;;;;;;;;;;5093385;28;20012;-29
2023/11/25 01:44:58;;;;;;;13.43;2.03;;;;;;;;;;5095012;28;20482;-29
2023/11/25 01:47:23;;;;;;;17.83;2.90;;;;;;;;;;5097013;28;20008;-29
2023/11/25 01:49:48;;;;;;;19.35;3.00;;;;;;;;;;5096921;28;20355;-30
2023/11/25 01:52:14;;;;;;;25.75;3.33;;;;;;;;;;5096792;28;20519;-29
2023/11/25 01:54:39;;;;;;;20.13;2.65;;;;;;;;;;5097241;28;20055;-30
2023/11/25 01:57:05;;;;;;;19.38;2.42;;;;;;;;;;5097089;28;20367;-30
2023/11/25 01:59:32;;;;;;;16.42;2.53;;;;;;;;;;5096734;28;20032;-29
2023/11/25 02:01:59;;;;;;;13.35;2.65;;;;;;;;;;5096749;28;20024;-29
2023/11/25 02:04:24;;;;;;;15.95;2.63;;;;;;;;;;5097280;28;20374;-29
2023/11/25 02:06:52;;;;;;;15.73;2.40;;;;;;;;;;5096451;28;20026;-31
2023/11/25 02:09:17;;;;;;;14.93;2.17;;;;;;;;;;5096063;28;20020;-29
2023/11/25 02:11:56;;;;;;;18.02;2.30;;;;;;;;;;5095555;28;20099;-29
2023/11/25 02:14:21;;;;;;;17.42;2.33;;;;;;;;;;5096164;28;20020;-29
2023/11/25 02:16:46;;;;;;;14.90;2.38;;;;;;;;;;5096197;28;20459;-29
2023/11/25 02:19:12;;;;;;;16.90;2.55;;;;;;;;;;5095965;28;20528;-29
2023/11/25 02:21:40;;;;;;;21.30;2.53;;;;;;;;;;5096434;28;20023;-29
2023/11/25 02:24:06;;;;;;;14.55;2.08;;;;;;;;;;5096280;28;20027;-29
2023/11/25 02:26:32;;;;;;;22.02;3.03;;;;;;;;;;5096815;28;20404;-29
2023/11/25 02:28:57;;;;;;;17.20;2.60;;;;;;;;;;5096196;28;20099;-29
2023/11/25 02:31:22;;;;;;;15.03;2.17;;;;;;;;;;5096452;28;20043;-29
2023/11/25 02:33:47;;;;;;;16.67;2.30;;;;;;;;;;5096163;28;20254;-28
2023/11/25 02:36:12;;;;;;;18.83;2.47;;;;;;;;;;5096126;28;20024;-28
2023/11/25 02:38:38;;;;;;;11.02;1.90;;;;;;;;;;5096245;28;20264;-28
2023/11/25 02:41:04;;;;;;;17.92;2.08;;;;;;;;;;5096202;28;20028;-28
2023/11/25 02:43:29;;;;;;;13.52;1.98;;;;;;;;;;5096163;28;20463;-28
2023/11/25 02:45:54;;;;;;;16.45;2.25;;;;;;;;;;5095863;28;20016;-28
2023/11/25 02:48:19;;;;;;;14.70;2.30;;;;;;;;;;5096113;28;20028;-28
2023/11/25 02:50:44;;;;;;;18.27;2.15;;;;;;;;;;5096034;28;20333;-28
2023/11/25 02:53:10;;;;;;;13.27;1.80;;;;;;;;;;5095715;28;20505;-28
2023/11/25 02:55:35;;;;;;;17.65;2.50;;;;;;;;;;5095058;28;20286;-28
2023/11/25 02:58:00;;;;;;;12.87;2.30;;;;;;;;;;5095659;28;20028;-28
2023/11/25 03:02:53;;;;;;;14.70;2.23;;;;;;;;;;5095875;28;20073;-29
2023/11/25 03:05:18;;;;;;;13.27;2.05;;;;;;;;;;5095707;28;20613;-28
2023/11/25 03:07:44;;;;;;;18.10;1.80;;;;;;;;;;5095757;28;20016;-28
2023/11/25 03:10:10;;;;;;;14.43;2.40;;;;;;;;;;5095684;28;20042;-28
2023/11/25 03:12:35;;;;;;;15.70;2.42;;;;;;;;;;5095226;28;20024;-28
2023/11/25 03:15:00;;;;;;;15.40;2.35;;;;;;;;;;5095320;28;20100;-28
2023/11/25 03:17:27;;;;;;;15.27;2.30;;;;;;;;;;5095248;28;20020;-28
2023/11/25 03:19:52;;;;;;;21.73;2.95;;;;;;;;;;5095317;28;20282;-28
2023/11/25 03:22:17;;;;;;;17.30;2.07;;;;;;;;;;5095207;28;20486;-28
2023/11/25 03:24:43;;;;;;;27.27;3.23;;;;;;;;;;5095526;28;20246;-28
2023/11/25 03:27:08;;;;;;;14.98;2.55;;;;;;;;;;5095307;28;20764;-28
2023/11/25 03:29:34;;;;;;;22.02;2.45;;;;;;;;;;5094994;28;20103;-29
2023/11/25 03:32:00;;;;;;;13.80;2.40;;;;;;;;;;5095172;28;20041;-29
2023/11/25 03:34:25;;;;;;;16.85;2.85;;;;;;;;;;5094824;28;20491;-29
2023/11/25 03:36:51;;;;;;;12.75;2.15;;;;;;;;;;5095044;28;20049;-29
2023/11/25 03:39:16;;;;;;;20.88;2.80;;;;;;;;;;5095481;28;20044;-29
2023/11/25 03:41:42;;;;;;;17.73;2.20;;;;;;;;;;5094641;28;20089;-28
2023/11/25 03:44:08;;;;;;;16.23;2.58;;;;;;;;;;5094874;28;20101;-28
2023/11/25 03:46:33;;;;;;;20.17;2.80;;;;;;;;;;5094730;28;20016;-28
2023/11/25 03:48:58;;;;;;;17.60;2.60;;;;;;;;;;5095251;28;20278;-28
2023/11/25 03:51:24;;;;;;;15.10;2.20;;;;;;;;;;5094676;28;20748;-28
2023/11/25 03:53:49;;;;;;;13.45;2.00;;;;;;;;;;5094595;28;20127;-28
2023/11/25 03:56:15;;;;;;;13.82;1.60;;;;;;;;;;5094344;28;20403;-28
2023/11/25 03:58:41;;;;;;;11.05;1.60;;;;;;;;;;5094757;28;20024;-28
2023/11/25 04:01:06;;;;;;;9.20;1.67;;;;;;;;;;5094387;28;20369;-28
2023/11/25 04:03:35;;;;;;;6.55;1.00;;;;;;;;;;5094635;28;20439;-28
2023/11/25 04:06:00;;;;;;;8.38;1.40;;;;;;;;;;5094863;28;20016;-28
2023/11/25 04:08:26;;;;;;;9.40;1.48;;;;;;;;;;5093645;28;20021;-29
2023/11/25 04:10:51;;;;;;;6.50;1.08;;;;;;;;;;5094558;28;20098;-29
2023/11/25 04:13:16;;;;;;;8.75;1.25;;;;;;;;;;5094403;28;20024;-29
2023/11/25 04:15:42;;;;;;;3.77;0.90;;;;;;;;;;5094215;28;20543;-29
2023/11/25 04:18:07;;;;;;;10.27;2.87;;;;;;;;;;5094638;28;20270;-29
2023/11/25 04:20:33;;;;;;;2.77;0.50;;;;;;;;;;5094299;28;20677;-30
2023/11/25 04:23:05;;;;;;;2.30;0.32;;;;;;;;;;5094913;28;20258;-29
2023/11/25 04:25:30;;;;;;;7.40;0.70;;;;;;;;;;5094304;28;20016;-29
2023/11/25 04:27:56;;;;;;;6.90;0.75;;;;;;;;;;5094018;28;20371;-29
2023/11/25 04:30:22;;;;;;;4.95;0.80;;;;;;;;;;5093947;28;20455;-30
2023/11/25 04:32:48;;;;;;;2.05;0.30;;;;;;;;;;5094130;28;20030;-29
2023/11/25 04:35:14;;;;;;;5.28;0.65;;;;;;;;;;5094154;28;20103;-30
2023/11/25 04:37:40;;;;;;;7.10;0.98;;;;;;;;;;5093815;28;20020;-30
2023/11/25 04:40:06;;;;;;;3.78;0.68;;;;;;;;;;5094297;28;20495;-29
2023/11/25 04:42:32;;;;;;;5.30;0.75;;;;;;;;;;5093744;28;20020;-30
2023/11/25 04:44:57;;;;;;;3.38;0.35;;;;;;;;;;5094016;28;20107;-29
2023/11/25 04:47:22;;;;;;;4.45;1.00;;;;;;;;;;5093702;28;20020;-30
2023/11/25 04:49:47;;;;;;;5.17;0.70;;;;;;;;;;5094209;28;20103;-30
2023/11/25 04:52:13;;;;;;;2.95;0.82;;;;;;;;;;5093648;28;20612;-30
2023/11/25 04:54:38;;;;;;;4.68;0.55;;;;;;;;;;5093700;28;20032;-29
2023/11/25 04:57:04;;;;;;;2.88;0.45;;;;;;;;;;5093814;28;20051;-28
2023/11/25 04:59:29;;;;;;;8.18;1.58;;;;;;;;;;5093851;28;20136;-28
2023/11/25 05:01:54;;;;;;;6.45;1.02;;;;;;;;;;5093204;28;20031;-29
2023/11/25 05:04:20;;;;;;;5.67;0.83;;;;;;;;;;5093392;28;20027;-28
2023/11/25 05:06:46;;;;;;;3.67;0.80;;;;;;;;;;5093756;28;20272;-29
2023/11/25 05:09:14;;;;;;;8.20;0.98;;;;;;;;;;5093409;28;20020;-29
2023/11/25 05:11:40;;;;;;;3.30;0.63;;;;;;;;;;5093903;28;20055;-29
2023/11/25 05:14:05;;;;;;;7.95;0.90;;;;;;;;;;5093609;28;20392;-29
2023/11/25 05:16:31;;;;;;;5.85;0.80;;;;;;;;;;5093325;28;20058;-29
2023/11/25 05:18:56;;;;;;;4.95;1.27;;;;;;;;;;5095072;28;20055;-29
2023/11/25 05:21:21;;;;;;;5.47;0.80;;;;;;;;;;5098024;28;20048;-29
2023/11/25 05:23:46;;;;;;;9.73;1.00;;;;;;;;;;5097506;28;20253;-29
2023/11/25 05:26:12;;;;;;;10.57;1.20;;;;;;;;;;5097979;28;20016;-29
2023/11/25 05:28:37;;;;;;;8.25;0.90;;;;;;;;;;5097667;28;20700;-29
2023/11/25 05:31:03;;;;;;;8.13;1.23;;;;;;;;;;5097212;28;20016;-32
2023/11/25 05:33:28;;;;;;;7.13;1.20;;;;;;;;;;5097547;28;20361;-29
2023/11/25 05:35:54;;;;;;;8.32;1.20;;;;;;;;;;5097784;28;20020;-29
2023/11/25 05:38:19;;;;;;;4.97;0.85;;;;;;;;;;5097148;28;20077;-29
2023/11/25 05:40:46;;;;;;;9.35;1.50;;;;;;;;;;5097695;28;20016;-29
2023/11/25 05:43:11;;;;;;;6.65;1.02;;;;;;;;;;5097302;28;20020;-29
2023/11/25 05:45:40;;;;;;;7.32;0.98;;;;;;;;;;5097076;28;20523;-29
2023/11/25 05:48:06;;;;;;;9.27;1.27;;;;;;;;;;5097104;28;20027;-29
2023/11/25 05:50:31;;;;;;;10.82;1.70;;;;;;;;;;5096386;28;20024;-29
2023/11/25 05:52:56;;;;;;;6.65;1.30;;;;;;;;;;5096046;28;20359;-29
2023/11/25 05:55:22;;;;;;;4.70;1.13;;;;;;;;;;5095477;28;20055;-29
2023/11/25 05:57:50;;;;;;;7.22;1.15;;;;;;;;;;5095264;28;20652;-29
2023/11/25 06:00:15;;;;;;;6.97;1.33;;;;;;;;;;5095052;28;20099;-29
2023/11/25 06:02:40;;;;;;;8.15;1.58;;;;;;;;;;5095123;28;20109;-28
2023/11/25 06:05:06;;;;;;;7.22;1.00;;;;;;;;;;5094983;28;20012;-28
2023/11/25 06:07:31;;;;;;;3.70;0.88;;;;;;;;;;5096923;28;20047;-29
2023/11/25 06:09:56;;;;;;;7.37;1.17;;;;;;;;;;5097374;28;20066;-28
2023/11/25 06:12:22;;;;;;;6.10;1.63;;;;;;;;;;5096454;28;20265;-28
2023/11/25 06:14:49;;;;;;;7.68;1.15;;;;;;;;;;5096880;28;20250;-29
2023/11/25 06:17:14;;;;;;;8.65;1.20;;;;;;;;;;5096744;28;20051;-28
2023/11/25 06:19:42;;;;;;;9.95;1.77;;;;;;;;;;5096611;28;20058;-29
2023/11/25 06:22:07;;;;;;;7.80;1.50;;;;;;;;;;5078503;28;20107;-28
2023/11/25 06:24:33;;;;;;;8.90;1.60;;;;;;;;;;5096655;28;20063;-29
2023/11/25 06:26:58;;;;;;;9.33;1.00;;;;;;;;;;5096790;28;20265;-28
2023/11/25 06:29:23;;;;;;;9.03;1.27;;;;;;;;;;5096176;28;20605;-29
2023/11/25 06:31:49;;;;;;;8.17;2.00;;;;;;;;;;5095870;28;20344;-29
2023/11/25 06:34:14;;;;;;;8.00;1.30;;;;;;;;;;5096230;28;20258;-28
2023/11/25 06:36:40;;;;;;;10.93;2.27;;;;;;;;;;5096345;28;20085;-29
2023/11/25 06:39:07;;;;;;;7.20;1.30;;;;;;;;;;5096598;28;20258;-29
2023/11/25 06:41:32;;;;;;;7.28;1.42;;;;;;;;;;5096177;28;20759;-28
2023/11/25 06:43:57;;;;;;;9.80;1.40;;;;;;;;;;5096453;28;20027;-28
2023/11/25 06:46:22;;;;;;;11.75;1.40;;;;;;;;;;5096079;28;20242;-28
2023/11/25 06:48:48;;;;;;;16.60;2.47;;;;;;;;;;5095830;28;20482;-28
2023/11/25 06:51:13;;;;;;;9.27;1.15;;;;;;;;;;5094195;28;20305;-28
2023/11/25 06:53:39;;;;;;;8.30;1.02;;;;;;;;;;5077576;28;20020;-29
2023/11/25 06:56:08;;;;;;;5.43;0.75;;;;;;;;;;5095761;28;20052;-28
2023/11/25 06:58:33;;;;;;;1.90;0.30;;;;;;;;;;5096351;28;20016;-28
2023/11/25 07:01:04;;;;;;;3.00;0.80;;;;;;;;;;5095476;28;20027;-28
2023/11/25 07:03:29;;;;;;;7.30;0.63;;;;;;;;;;5095550;28;20012;-29
2023/11/25 07:05:54;;;;;;;4.13;0.30;;;;;;;;;;5096125;28;20013;-29
2023/11/25 07:08:19;;;;;;;2.50;0.40;;;;;;;;;;5095480;28;20290;-29
2023/11/25 07:10:53;;;;;;;1.20;0.50;;;;;;;;;;5095684;28;20250;-29
2023/11/25 07:13:19;;;;;;;2.58;0.50;;;;;;;;;;5095602;28;20023;-29
2023/11/25 07:15:44;;;;;;;1.88;0.25;;;;;;;;;;5094838;28;20473;-29
2023/11/25 07:18:10;;;;;;;1.73;0.30;;;;;;;;;;5093455;28;20074;-29
2023/11/25 07:20:35;;;;;;;1.45;0.38;;;;;;;;;;5093310;28;20027;-29
2023/11/25 07:23:01;;;;;;;2.83;0.45;;;;;;;;;;5093276;28;20016;-29
2023/11/25 07:25:28;;;;;;;2.17;0.45;;;;;;;;;;5093178;28;20047;-29
2023/11/25 07:27:53;;;;;;;4.38;0.47;;;;;;;;;;5074940;28;20077;-29
2023/11/25 07:30:18;;;;;;;5.13;0.50;;;;;;;;;;5094434;28;20020;-29
2023/11/25 07:32:43;;;;;;;5.70;1.05;;;;;;;;;;5094901;28;20047;-29
2023/11/25 07:35:09;;;;;;;5.53;0.82;;;;;;;;;;5077220;28;20028;-29
2023/11/25 07:37:34;;;;;;;1.75;0.70;;;;;;;;;;5094893;28;20035;-28
2023/11/25 07:40:01;;;;;;;4.28;1.00;;;;;;;;;;5094679;28;20020;-29
2023/11/25 07:42:26;;;;;;;5.82;0.85;;;;;;;;;;5095013;28;20012;-29
2023/11/25 07:44:51;;;;;;;3.03;0.75;;;;;;;;;;5094807;28;20070;-29
2023/11/25 07:47:17;;;;;;;5.93;1.08;;;;;;;;;;5095030;28;20039;-29
2023/11/25 07:49:42;;;;;;;5.95;0.90;;;;;;;;;;5094949;28;20012;-29
2023/11/25 07:52:07;;;;;;;7.93;0.98;;;;;;;;;;5095177;28;20042;-29
2023/11/25 07:54:33;;;;;;;3.40;0.93;;;;;;;;;;5094906;28;20048;-29
2023/11/25 07:56:58;;;;;;;5.95;0.95;;;;;;;;;;5094502;28;20371;-29
2023/11/25 07:59:23;;;;;;;5.60;0.73;;;;;;;;;;5094794;28;20024;-29
2023/11/25 08:01:48;;;;;;;6.57;0.73;;;;;;;;;;5094574;28;20281;-29
2023/11/25 08:04:13;;;;;;;2.45;0.82;;;;;;;;;;5094678;28;20016;-30
2023/11/25 08:06:39;;;;;;;2.53;0.50;;;;;;;;;;5094856;28;20012;-29
2023/11/25 08:09:05;;;;;;;2.38;0.30;;;;;;;;;;5094613;28;20024;-29
2023/11/25 08:11:32;;;;;;;4.10;0.60;;;;;;;;;;5094505;28;20024;-29
2023/11/25 08:13:57;;;;;;;3.20;1.20;;;;;;;;;;5094234;28;20434;-29
2023/11/25 08:16:23;;;;;;;3.80;1.23;;;;;;;;;;5094787;28;20047;-29
2023/11/25 08:18:48;;;;;;;4.15;0.95;;;;;;;;;;5094385;28;20262;-29
2023/11/25 08:21:14;;;;;;;2.47;0.90;;;;;;;;;;5094574;28;20119;-29
2023/11/25 08:23:42;;;;;;;2.80;0.70;;;;;;;;;;5094069;28;20673;-29
2023/11/25 08:26:23;;;;;;;1.85;0.68;;;;;;;;;;5094001;28;20143;-29
2023/11/25 08:28:49;;;;;;;6.15;0.85;;;;;;;;;;5094213;28;20340;-29
2023/11/25 08:31:15;;;;;;;6.15;1.08;;;;;;;;;;5094523;28;20074;-29
2023/11/25 08:33:41;;;;;;;3.40;1.00;;;;;;;;;;5094165;28;20027;-29
2023/11/25 08:36:07;;;;;;;8.43;1.45;;;;;;;;;;5093790;28;20031;-29
2023/11/25 08:38:32;;;;;;;9.35;1.08;;;;;;;;;;5093936;28;20016;-29
2023/11/25 08:40:57;;;;;;;13.73;1.33;;;;;;;;;;5094060;28;20110;-28
2023/11/25 08:43:23;;;;;;;12.53;2.00;;;;;;;;;;5093866;28;20313;-29
2023/11/25 08:45:48;;;;;;;7.43;1.50;;;;;;;;;;5094269;28;20265;-29
2023/11/25 08:48:14;;;;;;;5.82;1.08;;;;;;;;;;5093591;28;20447;-29
2023/11/25 08:50:39;;;;;;;10.15;1.45;;;;;;;;;;5094338;28;20035;-29
2023/11/25 08:53:05;;;;;;;9.52;1.33;;;;;;;;;;5093640;28;20016;-29
2023/11/25 08:55:30;;;;;;;7.00;1.20;;;;;;;;;;5093488;28;20502;-29
2023/11/25 08:57:55;;;;;;;11.40;1.90;;;;;;;;;;5093902;28;20032;-29
2023/11/25 09:00:20;;;;;;;11.23;1.33;;;;;;;;;;5093454;28;20714;-29
2023/11/25 09:02:50;;;;;;;11.38;1.48;;;;;;;;;;5093080;28;20008;-30
2023/11/25 09:05:21;;;;;;;9.25;1.15;;;;;;;;;;5093778;28;20103;-30
2023/11/25 09:07:50;;;;;;;9.75;1.42;;;;;;;;;;5093528;28;20012;-29
2023/11/25 09:10:15;;;;;;;10.02;1.45;;;;;;;;;;5093307;28;20023;-29
2023/11/25 09:12:41;;;;;;;5.63;1.30;;;;;;;;;;5093445;28;20032;-29
2023/11/25 09:15:08;;;;;;;8.25;1.42;;;;;;;;;;5093573;28;20065;-30
2023/11/25 09:17:35;;;;;;;8.82;1.48;;;;;;;;;;5092999;28;20028;-29
2023/11/25 09:20:00;;;;;;;10.77;1.48;;;;;;;;;;5093016;28;20043;-30
2023/11/25 09:22:26;;;;;;;13.30;1.55;;;;;;;;;;5093252;28;20064;-30
2023/11/25 09:24:51;;;;;;;11.50;1.73;;;;;;;;;;5093435;28;20013;-29
2023/11/25 09:27:16;;;;;;;11.52;1.60;;;;;;;;;;5094122;28;20270;-30
2023/11/25 09:29:42;;;;;;;10.07;1.50;;;;;;;;;;5093731;28;20114;-29
2023/11/25 09:32:08;;;;;;;9.60;1.58;;;;;;;;;;5093664;28;20258;-30
2023/11/25 09:34:33;;;;;;;9.15;1.45;;;;;;;;;;5093529;28;20031;-30
2023/11/25 09:36:59;;;;;;;14.77;1.85;;;;;;;;;;5093281;28;20028;-30
2023/11/25 09:39:24;;;;;;;16.42;3.70;;;;;;;;;;5093185;28;20024;-29
2023/11/25 09:41:50;;;;;;;15.43;5.72;;;;;;;;;;5093554;28;20019;-30
2023/11/25 09:44:15;;;;;;;12.25;4.85;;;;;;;;;;5093503;28;20378;-30
2023/11/25 09:46:40;;;;;;;14.48;3.05;;;;;;;;;;5093513;28;20024;-30
2023/11/25 09:49:06;;;;;;;10.35;2.65;;;;;;;;;;5093532;28;20036;-30
2023/11/25 09:51:32;;;;;;;15.02;1.90;;;;;;;;;;5093191;28;20027;-29
2023/11/25 09:54:02;;;;;;;15.15;2.05;;;;;;;;;;5093504;28;20506;-30
2023/11/25 09:56:28;;;;;;;13.25;2.00;;;;;;;;;;5093061;28;20094;-30
2023/11/25 09:58:53;;;;;;;12.23;1.92;;;;;;;;;;5093980;28;20028;-30
2023/11/25 10:01:18;;;;;;;10.52;2.50;;;;;;;;;;5092941;28;20103;-30
2023/11/25 10:03:45;;;;;;;14.85;1.90;;;;;;;;;;5093516;28;20091;-29
2023/11/25 10:06:11;;;;;;;12.95;2.00;;;;;;;;;;5077206;28;20089;-30
2023/11/25 10:08:36;;;;;;;15.32;1.58;;;;;;;;;;5096577;28;20016;-30
2023/11/25 10:11:08;;;;;;;7.67;1.03;;;;;;;;;;5095216;28;20432;-30
2023/11/25 10:13:34;;;;;;;8.10;1.30;;;;;;;;;;5096619;28;20262;-30
2023/11/25 10:16:00;;;;;;;12.93;1.83;;;;;;;;;;5078648;28;20374;-29
2023/11/25 10:18:25;;;;;;;8.93;1.60;;;;;;;;;;5096801;28;20077;-30
2023/11/25 10:20:57;;;;;;;10.38;1.58;;;;;;;;;;5096781;28;20435;-30
2023/11/25 10:23:23;;;;;;;10.57;2.33;;;;;;;;;;5096820;28;20072;-29
2023/11/25 10:25:51;;;;;;;10.27;2.63;;;;;;;;;;5097241;28;20057;-29
2023/11/25 10:28:18;;;;;;;7.65;1.92;;;;;;;;;;5096665;28;20040;-30
2023/11/25 10:30:51;;;;;;;8.23;1.30;;;;;;;;;;5096659;28;20546;-29
2023/11/25 10:33:17;;;;;;;7.22;2.10;;;;;;;;;;5096809;28;20035;-30
2023/11/25 10:35:43;;;;;;;8.32;1.45;;;;;;;;;;5078125;28;20379;-29
2023/11/25 10:38:10;;;;;;;6.35;1.30;;;;;;;;;;5096506;28;20475;-30
2023/11/25 10:40:35;;;;;;;9.77;1.25;;;;;;;;;;5077949;28;20024;-30
2023/11/25 10:43:04;;;;;;;7.53;1.63;;;;;;;;;;5096162;28;20103;-30
2023/11/25 10:45:29;;;;;;;11.13;1.80;;;;;;;;;;5096387;28;20357;-29
2023/11/25 10:47:56;;;;;;;9.75;2.30;;;;;;;;;;5096272;28;20020;-29
2023/11/25 10:50:21;;;;;;;8.80;1.40;;;;;;;;;;5096047;28;20039;-30
2023/11/25 10:52:48;;;;;;;12.30;1.77;;;;;;;;;;5096494;28;20028;-30
2023/11/25 10:55:15;;;;;;;11.30;2.30;;;;;;;;;;5095645;28;20044;-30
2023/11/25 10:57:40;;;;;;;14.05;1.92;;;;;;;;;;5096080;28;20030;-30
2023/11/25 11:00:10;;;;;;;9.45;1.65;;;;;;;;;;5095568;28;20502;-30
2023/11/25 11:02:48;;;;;;;14.15;2.10;;;;;;;;;;5096341;28;20024;-30
2023/11/25 11:05:14;;;;;;;13.15;2.22;;;;;;;;;;5096221;28;20016;-29
2023/11/25 11:07:46;;;;;;;12.07;1.67;;;;;;;;;;5096326;28;20092;-30
2023/11/25 11:10:12;;;;;;;11.02;2.70;;;;;;;;;;5096122;28;20450;-30
2023/11/25 11:12:41;;;;;;;10.80;1.80;;;;;;;;;;5095497;28;20477;-30
2023/11/25 11:15:13;;;;;;;12.20;2.10;;;;;;;;;;5095709;28;20052;-30
2023/11/25 11:17:45;;;;;;;10.95;2.95;;;;;;;;;;5095722;28;20058;-30
2023/11/25 11:20:12;;;;;;;11.48;2.88;;;;;;;;;;5077280;28;20035;-30
2023/11/25 11:22:40;;;;;;;7.28;2.60;;;;;;;;;;5078837;28;20048;-30
2023/11/25 11:25:29;;;;;;;13.00;2.50;;;;;;;;;;5095184;28;20395;-35
2023/11/25 11:28:12;;;;;;;12.70;3.20;;;;;;;;;;5095527;28;20380;-30
2023/11/25 11:30:41;;;;;;;11.02;1.75;;;;;;;;;;5095868;28;20126;-30
2023/11/25 11:33:07;;;;;;;7.47;1.55;;;;;;;;;;5096093;28;20045;-32
2023/11/25 11:35:35;;;;;;;10.45;1.90;;;;;;;;;;5097444;28;20020;-30
2023/11/25 11:38:00;;;;;;;10.02;1.85;;;;;;;;;;5096216;28;20474;-30
2023/11/25 11:40:26;;;;;;;8.63;1.73;;;;;;;;;;5095335;28;20085;-30
2023/11/25 11:42:54;;;;;;;11.15;1.80;;;;;;;;;;5095313;28;20254;-30
2023/11/25 11:45:25;;;;;;;10.48;1.77;;;;;;;;;;5095233;28;20024;-29
2023/11/25 11:47:57;;;;;;;13.40;1.70;;;;;;;;;;5095025;28;20027;-30
2023/11/25 11:50:29;;;;;;;8.82;1.60;;;;;;;;;;5094619;28;20031;-29
2023/11/25 11:53:00;;;;;;;9.27;2.17;;;;;;;;;;5094997;28;20020;-30
2023/11/25 11:55:31;;;;;;;8.13;1.60;;;;;;;;;;5094589;28;20511;-30
2023/11/25 11:58:04;;;;;;;8.68;1.70;;;;;;;;;;5095599;28;20120;-29
2023/11/25 12:00:32;;;;;;;13.23;2.10;;;;;;;;;;5076493;28;20448;-30
2023/11/25 12:02:58;;;;;;;12.70;1.77;;;;;;;;;;5094944;28;20452;-30
2023/11/25 12:05:24;;;;;;;9.40;1.73;;;;;;;;;;5095083;28;20089;-30
2023/11/25 12:07:50;;;;;;;11.32;1.92;;;;;;;;;;5075994;28;20028;-30
2023/11/25 12:10:15;;;;;;;9.52;2.08;;;;;;;;;;5094703;28;20031;-30
2023/11/25 12:12:41;;;;;;;11.68;1.75;;;;;;;;;;5075950;28;20416;-29
2023/11/25 12:15:07;;;;;;;10.13;1.55;;;;;;;;;;5094745;28;20028;-29
2023/11/25 12:17:33;;;;;;;15.18;2.17;;;;;;;;;;5094465;28;20121;-29
2023/11/25 12:19:59;;;;;;;15.27;2.35;;;;;;;;;;5075899;28;20386;-30
2023/11/25 12:22:24;;;;;;;10.73;1.80;;;;;;;;;;5094341;28;20023;-30
2023/11/25 12:24:49;;;;;;;11.77;1.98;;;;;;;;;;5094441;28;20023;-29
2023/11/25 12:27:15;;;;;;;15.60;2.30;;;;;;;;;;5094572;28;20016;-34
2023/11/25 12:29:41;;;;;;;11.05;2.05;;;;;;;;;;5093410;28;20399;-30
2023/11/25 12:32:06;;;;;;;13.55;2.10;;;;;;;;;;5093977;28;20044;-30
2023/11/25 12:34:31;;;;;;;17.13;2.40;;;;;;;;;;5076105;28;20099;-30
2023/11/25 12:36:57;;;;;;;16.48;2.15;;;;;;;;;;5094245;28;20016;-29
2023/11/25 12:39:24;;;;;;;10.85;2.20;;;;;;;;;;5093829;28;20020;-29
2023/11/25 12:41:49;;;;;;;12.02;2.10;;;;;;;;;;5093848;28;20020;-30
2023/11/25 12:44:16;;;;;;;7.45;1.83;;;;;;;;;;5094212;28;20406;-30
2023/11/25 12:46:42;;;;;;;9.32;2.00;;;;;;;;;;5093968;28;20104;-29
2023/11/25 12:49:24;;;;;;;10.00;2.03;;;;;;;;;;5093641;28;20044;-30
2023/11/25 12:51:50;;;;;;;11.70;1.73;;;;;;;;;;5092965;28;20076;-30
2023/11/25 12:54:16;;;;;;;8.68;1.70;;;;;;;;;;5092274;28;20125;-30
2023/11/25 12:56:42;;;;;;;6.80;1.73;;;;;;;;;;5092968;28;20139;-30
2023/11/25 12:59:07;;;;;;;8.88;1.52;;;;;;;;;;5093976;28;20479;-29
2023/11/25 13:01:33;;;;;;;8.00;1.75;;;;;;;;;;5093360;28;20107;-30
2023/11/25 13:04:03;;;;;;;10.65;1.98;;;;;;;;;;5092361;28;20020;-30
2023/11/25 13:06:28;;;;;;;8.82;1.60;;;;;;;;;;5093819;28;20008;-30
2023/11/25 13:08:53;;;;;;;12.82;1.95;;;;;;;;;;5093504;28;20037;-29
2023/11/25 13:11:19;;;;;;;7.50;1.70;;;;;;;;;;5093704;28;20474;-30
2023/11/25 13:13:44;;;;;;;8.43;1.60;;;;;;;;;;5093564;28;20052;-29
2023/11/25 13:16:10;;;;;;;10.05;1.73;;;;;;;;;;5093632;28;20020;-30
2023/11/25 13:18:36;;;;;;;5.80;1.48;;;;;;;;;;5093943;28;20445;-29
2023/11/25 13:21:07;;;;;;;10.30;1.67;;;;;;;;;;5093814;28;20020;-30
2023/11/25 13:23:33;;;;;;;8.60;1.60;;;;;;;;;;5093303;28;20073;-29
2023/11/25 13:25:58;;;;;;;9.65;1.65;;;;;;;;;;5093530;28;20407;-29
2023/11/25 13:28:25;;;;;;;7.05;1.50;;;;;;;;;;5094194;28;20048;-35
2023/11/25 13:30:51;;;;;;;12.57;2.13;;;;;;;;;;5093456;28;20085;-29
2023/11/25 13:33:16;;;;;;;9.05;1.45;;;;;;;;;;5093792;28;20024;-29
2023/11/25 13:35:42;;;;;;;13.52;1.80;;;;;;;;;;5093240;28;20027;-30
2023/11/25 13:38:08;;;;;;;12.43;2.08;;;;;;;;;;5093448;28;20028;-29
2023/11/25 13:40:33;;;;;;;12.40;2.03;;;;;;;;;;5095680;28;20020;-29
2023/11/25 13:43:02;;;;;;;10.43;2.50;;;;;;;;;;5097138;28;20150;-29
2023/11/25 13:45:28;;;;;;;13.73;2.20;;;;;;;;;;5097181;28;20020;-30
2023/11/25 13:47:53;;;;;;;15.20;2.25;;;;;;;;;;5097273;28;20091;-29
2023/11/25 13:50:19;;;;;;;15.32;1.88;;;;;;;;;;5097554;28;20113;-29
2023/11/25 13:52:45;;;;;;;11.73;1.70;;;;;;;;;;5097124;28;20012;-29
2023/11/25 13:55:12;;;;;;;17.17;2.80;;;;;;;;;;5097314;28;20560;-29
2023/11/25 13:57:37;;;;;;;15.75;2.10;;;;;;;;;;5096858;28;20031;-30
2023/11/25 14:00:03;;;;;;;11.07;2.25;;;;;;;;;;5096723;28;20020;-29
2023/11/25 14:02:30;;;;;;;16.67;2.72;;;;;;;;;;5097158;28;20023;-30
2023/11/25 14:04:55;;;;;;;7.35;1.48;;;;;;;;;;5097712;28;20073;-36
2023/11/25 14:07:21;;;;;;;10.98;1.83;;;;;;;;;;5097636;28;20024;-29
2023/11/25 14:09:46;;;;;;;12.73;1.83;;;;;;;;;;5097072;28;20083;-29
2023/11/25 14:12:12;;;;;;;10.52;1.80;;;;;;;;;;5097293;28;20023;-29
2023/11/25 14:14:37;;;;;;;13.93;2.17;;;;;;;;;;5096741;28;20510;-29
2023/11/25 14:17:02;;;;;;;15.15;2.58;;;;;;;;;;5097141;28;20023;-29
2023/11/25 14:19:28;;;;;;;26.13;3.63;;;;;;;;;;5097123;28;20024;-30
2023/11/25 14:21:53;;;;;;;14.85;2.20;;;;;;;;;;5096970;28;20023;-29
2023/11/25 14:24:18;;;;;;;13.05;2.10;;;;;;;;;;5096550;28;20016;-30
2023/11/25 14:26:43;;;;;;;17.17;2.10;;;;;;;;;;5096720;28;20091;-29
2023/11/25 14:29:09;;;;;;;12.55;3.05;;;;;;;;;;5096769;28;20478;-30
2023/11/25 14:31:34;;;;;;;14.88;2.08;;;;;;;;;;5096638;28;20023;-29